sensor_id;sensor_type;location;lat;lon;timestamp;P1;durP1;ratioP1;P2;durP2;ratioP2
69991;SDS011;57332;51.320;-0.580;2024-01-15T00:00:17;3.53;;;1.30;;
69991;SDS011;57332;51.320;-0.580;2024-01-15T00:02:44;2.53;;;1.40;;
69991;SDS011;57332;51.320;-0.580;2024-01-15T00:05:11;2.85;;;1.30;;
69991;SDS011;57332;51.320;-0.580;2024-01-15T00:07:38;1.70;;;0.95;;
69991;SDS011;57332;51.320;-0.580;2024-01-15T00:10:05;2.40;;;0.90;;
69991;SDS011;57332;51.320;-0.580;2024-01-15T00:12:32;2.47;;;1.20;;
69991;SDS011;57332;51.320;-0.580;2024-01-15T00:14:59;3.65;;;1.38;;
69991;SDS011;57332;51.320;-0.580;2024-01-15T00:17:26;4.30;;;1.27;;
69991;SDS011;57332;51.320;-0.580;2024-01-15T00:19:53;2.50;;;1.30;;
69991;SDS011;57332;51.320;-0.580;2024-01-15T00:22:20;2.55;;;1.38;;
69991;SDS011;57332;51.320;-0.580;2024-01-15T00:24:47;2.00;;;1.17;;
69991;SDS011;57332;51.320;-0.580;2024-01-15T00:27:14;3.50;;;1.08;;
69991;SDS011;57332;51.320;-0.580;2024-01-15T00:29:42;3.30;;;1.17;;
69991;SDS011;57332;51.320;-0.580;2024-01-15T00:32:09;1.73;;;1.17;;
69991;SDS011;57332;51.320;-0.580;2024-01-15T00:34:36;3.58;;;1.50;;
69991;SDS011;57332;51.320;-0.580;2024-01-15T00:37:03;4.30;;;1.30;;
69991;SDS011;57332;51.320;-0.580;2024-01-15T00:39:33;3.38;;;1.48;;
69991;SDS011;57332;51.320;-0.580;2024-01-15T00:42:03;2.20;;;1.13;;
69991;SDS011;57332;51.320;-0.580;2024-01-15T00:44:30;3.45;;;1.23;;
69991;SDS011;57332;51.320;-0.580;2024-01-15T00:46:56;3.63;;;1.30;;
69991;SDS011;57332;51.320;-0.580;2024-01-15T00:49:23;2.90;;;1.10;;
69991;SDS011;57332;51.320;-0.580;2024-01-15T00:51:51;3.30;;;1.17;;
69991;SDS011;57332;51.320;-0.580;2024-01-15T00:54:18;2.30;;;1.10;;
69991;SDS011;57332;51.320;-0.580;2024-01-15T00:56:45;1.70;;;1.08;;
69991;SDS011;57332;51.320;-0.580;2024-01-15T00:59:12;3.97;;;1.15;;
69991;SDS011;57332;51.320;-0.580;2024-01-15T01:01:42;3.40;;;1.30;;
69991;SDS011;57332;51.320;-0.580;2024-01-15T01:04:10;2.65;;;1.20;;
69991;SDS011;57332;51.320;-0.580;2024-01-15T01:06:38;2.00;;;1.20;;
69991;SDS011;57332;51.320;-0.580;2024-01-15T01:09:05;2.13;;;1.20;;
69991;SDS011;57332;51.320;-0.580;2024-01-15T01:11:32;2.00;;;1.17;;
69991;SDS011;57332;51.320;-0.580;2024-01-15T01:13:59;2.10;;;1.23;;
69991;SDS011;57332;51.320;-0.580;2024-01-15T01:16:27;3.65;;;1.48;;
69991;SDS011;57332;51.320;-0.580;2024-01-15T01:18:54;2.88;;;1.05;;
69991;SDS011;57332;51.320;-0.580;2024-01-15T01:21:21;2.50;;;1.13;;
69991;SDS011;57332;51.320;-0.580;2024-01-15T01:23:48;3.17;;;1.42;;
69991;SDS011;57332;51.320;-0.580;2024-01-15T01:26:16;2.85;;;1.30;;
69991;SDS011;57332;51.320;-0.580;2024-01-15T01:28:43;2.83;;;1.08;;
69991;SDS011;57332;51.320;-0.580;2024-01-15T01:31:10;2.30;;;1.13;;
69991;SDS011;57332;51.320;-0.580;2024-01-15T01:33:38;3.15;;;1.30;;
69991;SDS011;57332;51.320;-0.580;2024-01-15T01:36:08;2.60;;;1.30;;
69991;SDS011;57332;51.320;-0.580;2024-01-15T01:38:36;5.50;;;1.55;;
69991;SDS011;57332;51.320;-0.580;2024-01-15T01:41:03;2.03;;;0.90;;
69991;SDS011;57332;51.320;-0.580;2024-01-15T01:43:30;3.88;;;1.15;;
69991;SDS011;57332;51.320;-0.580;2024-01-15T01:45:57;2.65;;;1.48;;
69991;SDS011;57332;51.320;-0.580;2024-01-15T01:48:27;5.50;;;1.23;;
69991;SDS011;57332;51.320;-0.580;2024-01-15T01:50:59;3.63;;;1.20;;
69991;SDS011;57332;51.320;-0.580;2024-01-15T01:53:26;2.38;;;1.30;;
69991;SDS011;57332;51.320;-0.580;2024-01-15T01:55:54;3.45;;;1.20;;
69991;SDS011;57332;51.320;-0.580;2024-01-15T01:58:22;2.80;;;1.05;;
69991;SDS011;57332;51.320;-0.580;2024-01-15T02:00:49;3.50;;;1.55;;
69991;SDS011;57332;51.320;-0.580;2024-01-15T02:03:16;2.47;;;1.17;;
69991;SDS011;57332;51.320;-0.580;2024-01-15T02:05:43;2.80;;;1.20;;
69991;SDS011;57332;51.320;-0.580;2024-01-15T02:08:11;2.40;;;1.27;;
69991;SDS011;57332;51.320;-0.580;2024-01-15T02:10:38;1.25;;;0.90;;
69991;SDS011;57332;51.320;-0.580;2024-01-15T02:13:05;4.13;;;1.48;;
69991;SDS011;57332;51.320;-0.580;2024-01-15T02:15:32;2.45;;;1.25;;
69991;SDS011;57332;51.320;-0.580;2024-01-15T02:18:02;2.95;;;1.13;;
69991;SDS011;57332;51.320;-0.580;2024-01-15T02:20:30;2.60;;;1.25;;
69991;SDS011;57332;51.320;-0.580;2024-01-15T02:25:40;4.70;;;1.50;;
69991;SDS011;57332;51.320;-0.580;2024-01-15T02:28:08;2.60;;;1.33;;
69991;SDS011;57332;51.320;-0.580;2024-01-15T02:30:39;2.75;;;1.20;;
69991;SDS011;57332;51.320;-0.580;2024-01-15T02:33:07;3.45;;;1.58;;
69991;SDS011;57332;51.320;-0.580;2024-01-15T02:35:34;3.25;;;1.15;;
69991;SDS011;57332;51.320;-0.580;2024-01-15T02:38:06;3.17;;;1.20;;
69991;SDS011;57332;51.320;-0.580;2024-01-15T02:40:33;3.10;;;1.27;;
69991;SDS011;57332;51.320;-0.580;2024-01-15T02:43:00;3.08;;;1.45;;
69991;SDS011;57332;51.320;-0.580;2024-01-15T02:45:27;3.05;;;1.20;;
69991;SDS011;57332;51.320;-0.580;2024-01-15T02:47:55;2.10;;;1.10;;
69991;SDS011;57332;51.320;-0.580;2024-01-15T02:50:22;4.45;;;1.33;;
69991;SDS011;57332;51.320;-0.580;2024-01-15T02:52:51;3.17;;;1.17;;
69991;SDS011;57332;51.320;-0.580;2024-01-15T02:55:18;3.05;;;0.98;;
69991;SDS011;57332;51.320;-0.580;2024-01-15T02:57:44;3.75;;;1.58;;
69991;SDS011;57332;51.320;-0.580;2024-01-15T03:00:12;2.58;;;1.20;;
69991;SDS011;57332;51.320;-0.580;2024-01-15T03:02:39;3.53;;;1.40;;
69991;SDS011;57332;51.320;-0.580;2024-01-15T03:05:10;4.07;;;1.50;;
69991;SDS011;57332;51.320;-0.580;2024-01-15T03:07:37;3.33;;;1.40;;
69991;SDS011;57332;51.320;-0.580;2024-01-15T03:10:04;4.32;;;1.23;;
69991;SDS011;57332;51.320;-0.580;2024-01-15T03:12:32;3.53;;;1.38;;
69991;SDS011;57332;51.320;-0.580;2024-01-15T03:14:59;3.28;;;1.10;;
69991;SDS011;57332;51.320;-0.580;2024-01-15T03:17:26;3.35;;;1.40;;
69991;SDS011;57332;51.320;-0.580;2024-01-15T03:19:53;2.40;;;1.08;;
69991;SDS011;57332;51.320;-0.580;2024-01-15T03:22:20;2.97;;;1.30;;
69991;SDS011;57332;51.320;-0.580;2024-01-15T03:24:47;3.13;;;1.20;;
69991;SDS011;57332;51.320;-0.580;2024-01-15T03:27:14;2.28;;;1.02;;
69991;SDS011;57332;51.320;-0.580;2024-01-15T03:29:40;1.98;;;0.90;;
69991;SDS011;57332;51.320;-0.580;2024-01-15T03:32:07;2.50;;;1.23;;
69991;SDS011;57332;51.320;-0.580;2024-01-15T03:34:34;3.38;;;1.30;;
69991;SDS011;57332;51.320;-0.580;2024-01-15T03:37:02;2.33;;;1.15;;
69991;SDS011;57332;51.320;-0.580;2024-01-15T03:39:28;1.98;;;1.27;;
69991;SDS011;57332;51.320;-0.580;2024-01-15T03:41:55;2.38;;;1.10;;
69991;SDS011;57332;51.320;-0.580;2024-01-15T03:44:22;3.38;;;1.63;;
69991;SDS011;57332;51.320;-0.580;2024-01-15T03:46:49;3.15;;;1.38;;
69991;SDS011;57332;51.320;-0.580;2024-01-15T03:49:16;3.58;;;1.50;;
69991;SDS011;57332;51.320;-0.580;2024-01-15T03:51:44;2.67;;;1.35;;
69991;SDS011;57332;51.320;-0.580;2024-01-15T03:54:11;2.65;;;1.27;;
69991;SDS011;57332;51.320;-0.580;2024-01-15T03:56:38;2.20;;;0.98;;
69991;SDS011;57332;51.320;-0.580;2024-01-15T03:59:05;2.72;;;1.05;;
69991;SDS011;57332;51.320;-0.580;2024-01-15T04:01:32;2.50;;;1.00;;
69991;SDS011;57332;51.320;-0.580;2024-01-15T04:03:59;1.88;;;0.98;;
69991;SDS011;57332;51.320;-0.580;2024-01-15T04:06:26;2.25;;;1.38;;
69991;SDS011;57332;51.320;-0.580;2024-01-15T04:08:53;3.72;;;1.17;;
69991;SDS011;57332;51.320;-0.580;2024-01-15T04:11:19;2.50;;;1.02;;
69991;SDS011;57332;51.320;-0.580;2024-01-15T04:13:46;2.13;;;0.98;;
69991;SDS011;57332;51.320;-0.580;2024-01-15T04:16:13;2.67;;;1.10;;
69991;SDS011;57332;51.320;-0.580;2024-01-15T04:18:40;3.03;;;1.00;;
69991;SDS011;57332;51.320;-0.580;2024-01-15T04:21:07;2.72;;;1.10;;
69991;SDS011;57332;51.320;-0.580;2024-01-15T04:23:34;2.20;;;1.10;;
69991;SDS011;57332;51.320;-0.580;2024-01-15T04:26:01;1.75;;;0.95;;
69991;SDS011;57332;51.320;-0.580;2024-01-15T04:28:28;6.22;;;1.13;;
69991;SDS011;57332;51.320;-0.580;2024-01-15T04:30:54;1.83;;;1.02;;
69991;SDS011;57332;51.320;-0.580;2024-01-15T04:33:22;1.60;;;0.98;;
69991;SDS011;57332;51.320;-0.580;2024-01-15T04:35:49;2.17;;;1.00;;
69991;SDS011;57332;51.320;-0.580;2024-01-15T04:38:18;2.00;;;0.85;;
69991;SDS011;57332;51.320;-0.580;2024-01-15T04:40:45;1.80;;;1.00;;
69991;SDS011;57332;51.320;-0.580;2024-01-15T04:43:12;2.15;;;0.90;;
69991;SDS011;57332;51.320;-0.580;2024-01-15T04:45:39;1.75;;;1.00;;
69991;SDS011;57332;51.320;-0.580;2024-01-15T04:48:06;3.05;;;1.02;;
69991;SDS011;57332;51.320;-0.580;2024-01-15T04:50:33;2.00;;;0.90;;
69991;SDS011;57332;51.320;-0.580;2024-01-15T04:53:00;2.08;;;0.93;;
69991;SDS011;57332;51.320;-0.580;2024-01-15T04:55:29;3.60;;;0.90;;
69991;SDS011;57332;51.320;-0.580;2024-01-15T04:57:55;2.03;;;0.70;;
69991;SDS011;57332;51.320;-0.580;2024-01-15T05:00:23;1.00;;;0.68;;
69991;SDS011;57332;51.320;-0.580;2024-01-15T05:02:50;3.63;;;1.05;;
69991;SDS011;57332;51.320;-0.580;2024-01-15T05:05:16;2.00;;;0.95;;
69991;SDS011;57332;51.320;-0.580;2024-01-15T05:07:44;1.38;;;0.90;;
69991;SDS011;57332;51.320;-0.580;2024-01-15T05:10:10;2.72;;;1.23;;
69991;SDS011;57332;51.320;-0.580;2024-01-15T05:12:37;2.22;;;0.80;;
69991;SDS011;57332;51.320;-0.580;2024-01-15T05:15:04;2.38;;;0.95;;
69991;SDS011;57332;51.320;-0.580;2024-01-15T05:17:31;2.20;;;0.70;;
69991;SDS011;57332;51.320;-0.580;2024-01-15T05:19:58;0.95;;;0.70;;
69991;SDS011;57332;51.320;-0.580;2024-01-15T05:22:27;1.73;;;0.70;;
69991;SDS011;57332;51.320;-0.580;2024-01-15T05:24:54;1.85;;;0.80;;
69991;SDS011;57332;51.320;-0.580;2024-01-15T05:27:21;1.67;;;0.70;;
69991;SDS011;57332;51.320;-0.580;2024-01-15T05:29:47;0.95;;;0.77;;
69991;SDS011;57332;51.320;-0.580;2024-01-15T05:32:14;1.60;;;0.75;;
69991;SDS011;57332;51.320;-0.580;2024-01-15T05:34:41;0.60;;;0.52;;
69991;SDS011;57332;51.320;-0.580;2024-01-15T05:37:08;1.45;;;0.80;;
69991;SDS011;57332;51.320;-0.580;2024-01-15T05:39:35;1.85;;;0.80;;
69991;SDS011;57332;51.320;-0.580;2024-01-15T05:42:02;1.42;;;0.50;;
69991;SDS011;57332;51.320;-0.580;2024-01-15T05:44:29;1.30;;;0.45;;
69991;SDS011;57332;51.320;-0.580;2024-01-15T05:46:56;1.27;;;0.60;;
69991;SDS011;57332;51.320;-0.580;2024-01-15T05:49:23;1.10;;;0.70;;
69991;SDS011;57332;51.320;-0.580;2024-01-15T05:51:50;2.10;;;0.80;;
69991;SDS011;57332;51.320;-0.580;2024-01-15T05:54:18;1.52;;;0.70;;
69991;SDS011;57332;51.320;-0.580;2024-01-15T05:56:45;1.70;;;0.55;;
69991;SDS011;57332;51.320;-0.580;2024-01-15T05:59:12;1.77;;;0.73;;
69991;SDS011;57332;51.320;-0.580;2024-01-15T06:01:41;1.02;;;0.50;;
69991;SDS011;57332;51.320;-0.580;2024-01-15T06:04:08;1.60;;;0.70;;
69991;SDS011;57332;51.320;-0.580;2024-01-15T06:06:35;0.77;;;0.50;;
69991;SDS011;57332;51.320;-0.580;2024-01-15T06:09:02;1.17;;;0.70;;
69991;SDS011;57332;51.320;-0.580;2024-01-15T06:11:32;1.35;;;0.52;;
69991;SDS011;57332;51.320;-0.580;2024-01-15T06:13:59;1.90;;;0.80;;
69991;SDS011;57332;51.320;-0.580;2024-01-15T06:16:29;1.52;;;0.75;;
69991;SDS011;57332;51.320;-0.580;2024-01-15T06:18:56;1.15;;;0.68;;
69991;SDS011;57332;51.320;-0.580;2024-01-15T06:21:23;0.75;;;0.52;;
69991;SDS011;57332;51.320;-0.580;2024-01-15T06:23:50;1.75;;;0.90;;
69991;SDS011;57332;51.320;-0.580;2024-01-15T06:26:17;1.02;;;0.60;;
69991;SDS011;57332;51.320;-0.580;2024-01-15T06:28:44;2.08;;;0.65;;
69991;SDS011;57332;51.320;-0.580;2024-01-15T06:31:10;2.00;;;0.80;;
69991;SDS011;57332;51.320;-0.580;2024-01-15T06:33:38;1.63;;;0.70;;
69991;SDS011;57332;51.320;-0.580;2024-01-15T06:36:05;1.58;;;0.70;;
69991;SDS011;57332;51.320;-0.580;2024-01-15T06:38:32;2.15;;;0.73;;
69991;SDS011;57332;51.320;-0.580;2024-01-15T06:40:59;1.80;;;1.00;;
69991;SDS011;57332;51.320;-0.580;2024-01-15T06:43:26;1.20;;;0.73;;
69991;SDS011;57332;51.320;-0.580;2024-01-15T06:45:53;2.38;;;0.82;;
69991;SDS011;57332;51.320;-0.580;2024-01-15T06:48:20;1.15;;;0.75;;
69991;SDS011;57332;51.320;-0.580;2024-01-15T06:50:47;1.75;;;0.60;;
69991;SDS011;57332;51.320;-0.580;2024-01-15T06:53:14;2.10;;;0.80;;
69991;SDS011;57332;51.320;-0.580;2024-01-15T06:55:41;1.10;;;0.70;;
69991;SDS011;57332;51.320;-0.580;2024-01-15T06:58:08;1.52;;;0.80;;
69991;SDS011;57332;51.320;-0.580;2024-01-15T07:00:35;1.48;;;0.77;;
69991;SDS011;57332;51.320;-0.580;2024-01-15T07:03:02;5.07;;;0.93;;
69991;SDS011;57332;51.320;-0.580;2024-01-15T07:05:29;2.15;;;1.00;;
69991;SDS011;57332;51.320;-0.580;2024-01-15T07:07:57;2.65;;;0.85;;
69991;SDS011;57332;51.320;-0.580;2024-01-15T07:10:24;2.45;;;0.73;;
69991;SDS011;57332;51.320;-0.580;2024-01-15T07:12:51;3.00;;;1.10;;
69991;SDS011;57332;51.320;-0.580;2024-01-15T07:15:18;1.90;;;1.10;;
69991;SDS011;57332;51.320;-0.580;2024-01-15T07:17:47;1.40;;;0.77;;
69991;SDS011;57332;51.320;-0.580;2024-01-15T07:20:14;1.60;;;0.80;;
69991;SDS011;57332;51.320;-0.580;2024-01-15T07:22:42;2.42;;;0.95;;
69991;SDS011;57332;51.320;-0.580;2024-01-15T07:25:08;2.33;;;0.75;;
69991;SDS011;57332;51.320;-0.580;2024-01-15T07:27:35;0.88;;;0.55;;
69991;SDS011;57332;51.320;-0.580;2024-01-15T07:30:02;2.42;;;0.80;;
69991;SDS011;57332;51.320;-0.580;2024-01-15T07:32:32;2.85;;;0.98;;
69991;SDS011;57332;51.320;-0.580;2024-01-15T07:34:59;1.90;;;0.70;;
69991;SDS011;57332;51.320;-0.580;2024-01-15T07:37:26;1.42;;;0.82;;
69991;SDS011;57332;51.320;-0.580;2024-01-15T07:39:53;1.88;;;0.63;;
69991;SDS011;57332;51.320;-0.580;2024-01-15T07:42:20;1.88;;;0.68;;
69991;SDS011;57332;51.320;-0.580;2024-01-15T07:44:47;1.50;;;0.70;;
69991;SDS011;57332;51.320;-0.580;2024-01-15T07:47:14;1.88;;;0.70;;
69991;SDS011;57332;51.320;-0.580;2024-01-15T07:49:41;2.30;;;0.95;;
69991;SDS011;57332;51.320;-0.580;2024-01-15T07:52:08;1.55;;;0.90;;
69991;SDS011;57332;51.320;-0.580;2024-01-15T07:54:35;2.15;;;0.80;;
69991;SDS011;57332;51.320;-0.580;2024-01-15T07:57:02;2.20;;;0.77;;
69991;SDS011;57332;51.320;-0.580;2024-01-15T07:59:32;2.25;;;0.80;;
69991;SDS011;57332;51.320;-0.580;2024-01-15T08:02:01;2.25;;;1.10;;
69991;SDS011;57332;51.320;-0.580;2024-01-15T08:04:28;2.50;;;0.80;;
69991;SDS011;57332;51.320;-0.580;2024-01-15T08:06:56;2.20;;;0.90;;
69991;SDS011;57332;51.320;-0.580;2024-01-15T08:09:23;3.20;;;0.88;;
69991;SDS011;57332;51.320;-0.580;2024-01-15T08:11:50;5.22;;;0.88;;
69991;SDS011;57332;51.320;-0.580;2024-01-15T08:14:17;1.27;;;0.60;;
69991;SDS011;57332;51.320;-0.580;2024-01-15T08:16:44;1.35;;;0.65;;
69991;SDS011;57332;51.320;-0.580;2024-01-15T08:19:11;1.48;;;0.70;;
69991;SDS011;57332;51.320;-0.580;2024-01-15T08:21:39;2.53;;;1.13;;
69991;SDS011;57332;51.320;-0.580;2024-01-15T08:24:06;2.08;;;1.00;;
69991;SDS011;57332;51.320;-0.580;2024-01-15T08:26:33;2.17;;;1.13;;
69991;SDS011;57332;51.320;-0.580;2024-01-15T08:29:00;1.27;;;0.90;;
69991;SDS011;57332;51.320;-0.580;2024-01-15T08:31:26;2.88;;;1.00;;
69991;SDS011;57332;51.320;-0.580;2024-01-15T08:33:54;2.92;;;1.00;;
69991;SDS011;57332;51.320;-0.580;2024-01-15T08:36:22;2.90;;;1.02;;
69991;SDS011;57332;51.320;-0.580;2024-01-15T08:38:50;1.38;;;0.70;;
69991;SDS011;57332;51.320;-0.580;2024-01-15T08:41:18;2.78;;;0.98;;
69991;SDS011;57332;51.320;-0.580;2024-01-15T08:43:44;2.85;;;1.00;;
69991;SDS011;57332;51.320;-0.580;2024-01-15T08:46:11;3.20;;;0.88;;
69991;SDS011;57332;51.320;-0.580;2024-01-15T08:48:38;1.98;;;0.95;;
69991;SDS011;57332;51.320;-0.580;2024-01-15T08:51:06;1.45;;;0.82;;
69991;SDS011;57332;51.320;-0.580;2024-01-15T08:53:35;1.80;;;0.80;;
69991;SDS011;57332;51.320;-0.580;2024-01-15T08:56:01;1.95;;;0.80;;
69991;SDS011;57332;51.320;-0.580;2024-01-15T08:58:29;1.52;;;0.85;;
69991;SDS011;57332;51.320;-0.580;2024-01-15T09:00:55;1.63;;;0.80;;
69991;SDS011;57332;51.320;-0.580;2024-01-15T09:03:23;2.22;;;0.80;;
69991;SDS011;57332;51.320;-0.580;2024-01-15T09:05:50;2.45;;;1.15;;
69991;SDS011;57332;51.320;-0.580;2024-01-15T09:08:18;1.90;;;0.93;;
69991;SDS011;57332;51.320;-0.580;2024-01-15T09:10:45;2.78;;;0.80;;
69991;SDS011;57332;51.320;-0.580;2024-01-15T09:13:12;3.90;;;1.30;;
69991;SDS011;57332;51.320;-0.580;2024-01-15T09:15:39;4.03;;;1.20;;
69991;SDS011;57332;51.320;-0.580;2024-01-15T09:18:06;1.83;;;1.20;;
69991;SDS011;57332;51.320;-0.580;2024-01-15T09:20:34;1.75;;;0.95;;
69991;SDS011;57332;51.320;-0.580;2024-01-15T09:23:01;2.67;;;1.02;;
69991;SDS011;57332;51.320;-0.580;2024-01-15T09:25:29;2.30;;;1.20;;
69991;SDS011;57332;51.320;-0.580;2024-01-15T09:27:56;2.38;;;1.33;;
69991;SDS011;57332;51.320;-0.580;2024-01-15T09:30:23;3.17;;;1.52;;
69991;SDS011;57332;51.320;-0.580;2024-01-15T09:32:51;2.25;;;1.15;;
69991;SDS011;57332;51.320;-0.580;2024-01-15T09:35:18;4.18;;;1.60;;
69991;SDS011;57332;51.320;-0.580;2024-01-15T09:37:46;3.78;;;1.65;;
69991;SDS011;57332;51.320;-0.580;2024-01-15T09:40:14;4.15;;;1.95;;
69991;SDS011;57332;51.320;-0.580;2024-01-15T09:42:42;8.15;;;2.92;;
69991;SDS011;57332;51.320;-0.580;2024-01-15T09:45:09;7.28;;;2.95;;
69991;SDS011;57332;51.320;-0.580;2024-01-15T09:47:36;6.00;;;2.80;;
69991;SDS011;57332;51.320;-0.580;2024-01-15T09:50:08;4.57;;;1.92;;
69991;SDS011;57332;51.320;-0.580;2024-01-15T09:52:35;3.70;;;2.03;;
69991;SDS011;57332;51.320;-0.580;2024-01-15T09:55:03;2.97;;;1.10;;
69991;SDS011;57332;51.320;-0.580;2024-01-15T09:57:32;3.95;;;1.42;;
69991;SDS011;57332;51.320;-0.580;2024-01-15T09:59:59;3.50;;;1.48;;
69991;SDS011;57332;51.320;-0.580;2024-01-15T10:02:28;2.00;;;1.20;;
69991;SDS011;57332;51.320;-0.580;2024-01-15T10:04:55;2.00;;;0.98;;
69991;SDS011;57332;51.320;-0.580;2024-01-15T10:07:22;3.60;;;1.35;;
69991;SDS011;57332;51.320;-0.580;2024-01-15T10:09:50;3.70;;;1.10;;
69991;SDS011;57332;51.320;-0.580;2024-01-15T10:12:17;3.40;;;1.15;;
69991;SDS011;57332;51.320;-0.580;2024-01-15T10:14:44;2.35;;;1.10;;
69991;SDS011;57332;51.320;-0.580;2024-01-15T10:17:12;2.83;;;1.40;;
69991;SDS011;57332;51.320;-0.580;2024-01-15T10:19:38;1.95;;;1.00;;
69991;SDS011;57332;51.320;-0.580;2024-01-15T10:22:11;1.77;;;0.88;;
69991;SDS011;57332;51.320;-0.580;2024-01-15T10:24:39;2.22;;;0.93;;
69991;SDS011;57332;51.320;-0.580;2024-01-15T10:27:10;3.45;;;0.73;;
69991;SDS011;57332;51.320;-0.580;2024-01-15T10:29:37;2.67;;;0.80;;
69991;SDS011;57332;51.320;-0.580;2024-01-15T10:32:07;2.78;;;1.10;;
69991;SDS011;57332;51.320;-0.580;2024-01-15T10:34:38;2.45;;;0.80;;
69991;SDS011;57332;51.320;-0.580;2024-01-15T10:37:10;2.10;;;0.77;;
69991;SDS011;57332;51.320;-0.580;2024-01-15T10:39:37;2.25;;;1.10;;
69991;SDS011;57332;51.320;-0.580;2024-01-15T10:42:05;3.85;;;1.40;;
69991;SDS011;57332;51.320;-0.580;2024-01-15T10:44:33;1.55;;;0.90;;
69991;SDS011;57332;51.320;-0.580;2024-01-15T10:47:01;2.63;;;1.00;;
69991;SDS011;57332;51.320;-0.580;2024-01-15T10:49:28;2.58;;;0.90;;
69991;SDS011;57332;51.320;-0.580;2024-01-15T10:52:03;2.97;;;0.80;;
69991;SDS011;57332;51.320;-0.580;2024-01-15T10:54:30;2.03;;;0.80;;
69991;SDS011;57332;51.320;-0.580;2024-01-15T10:56:58;4.88;;;1.38;;
69991;SDS011;57332;51.320;-0.580;2024-01-15T10:59:25;2.15;;;1.08;;
69991;SDS011;57332;51.320;-0.580;2024-01-15T11:01:52;3.85;;;0.90;;
69991;SDS011;57332;51.320;-0.580;2024-01-15T11:04:22;1.85;;;0.95;;
69991;SDS011;57332;51.320;-0.580;2024-01-15T11:06:54;1.85;;;0.88;;
69991;SDS011;57332;51.320;-0.580;2024-01-15T11:09:23;2.22;;;0.75;;
69991;SDS011;57332;51.320;-0.580;2024-01-15T11:11:51;13.15;;;3.45;;
69991;SDS011;57332;51.320;-0.580;2024-01-15T11:17:26;4.57;;;1.00;;
69991;SDS011;57332;51.320;-0.580;2024-01-15T11:19:54;1.40;;;0.77;;
69991;SDS011;57332;51.320;-0.580;2024-01-15T11:25:01;3.15;;;1.00;;
69991;SDS011;57332;51.320;-0.580;2024-01-15T11:28:02;3.28;;;0.88;;
69991;SDS011;57332;51.320;-0.580;2024-01-15T11:30:24;2.20;;;0.60;;
69991;SDS011;57332;51.320;-0.580;2024-01-15T11:32:52;1.20;;;0.70;;
69991;SDS011;57332;51.320;-0.580;2024-01-15T11:35:19;2.00;;;0.73;;
69991;SDS011;57332;51.320;-0.580;2024-01-15T11:42:59;2.70;;;0.73;;
69991;SDS011;57332;51.320;-0.580;2024-01-15T11:45:30;1.27;;;0.60;;
69991;SDS011;57332;51.320;-0.580;2024-01-15T11:48:15;0.50;;;0.30;;
69991;SDS011;57332;51.320;-0.580;2024-01-15T11:50:47;1.92;;;0.80;;
69991;SDS011;57332;51.320;-0.580;2024-01-15T11:55:44;1.58;;;0.30;;
69991;SDS011;57332;51.320;-0.580;2024-01-15T11:58:12;0.60;;;0.40;;
69991;SDS011;57332;51.320;-0.580;2024-01-15T12:00:43;1.80;;;0.30;;
69991;SDS011;57332;51.320;-0.580;2024-01-15T12:03:10;0.80;;;0.30;;
69991;SDS011;57332;51.320;-0.580;2024-01-15T12:05:38;0.47;;;0.25;;
69991;SDS011;57332;51.320;-0.580;2024-01-15T12:08:05;1.85;;;0.75;;
69991;SDS011;57332;51.320;-0.580;2024-01-15T12:10:38;0.60;;;0.20;;
69991;SDS011;57332;51.320;-0.580;2024-01-15T12:13:10;0.73;;;0.38;;
69991;SDS011;57332;51.320;-0.580;2024-01-15T12:15:37;1.80;;;0.50;;
69991;SDS011;57332;51.320;-0.580;2024-01-15T12:18:05;3.42;;;0.45;;
69991;SDS011;57332;51.320;-0.580;2024-01-15T12:20:32;2.08;;;0.50;;
69991;SDS011;57332;51.320;-0.580;2024-01-15T12:23:00;0.77;;;0.30;;
69991;SDS011;57332;51.320;-0.580;2024-01-15T12:25:31;1.40;;;0.50;;
69991;SDS011;57332;51.320;-0.580;2024-01-15T12:27:58;2.63;;;0.98;;
69991;SDS011;57332;51.320;-0.580;2024-01-15T12:30:29;1.35;;;0.50;;
69991;SDS011;57332;51.320;-0.580;2024-01-15T12:33:00;2.47;;;0.90;;
69991;SDS011;57332;51.320;-0.580;2024-01-15T12:35:28;2.53;;;0.80;;
69991;SDS011;57332;51.320;-0.580;2024-01-15T12:37:56;1.38;;;0.38;;
69991;SDS011;57332;51.320;-0.580;2024-01-15T12:40:23;1.50;;;0.40;;
69991;SDS011;57332;51.320;-0.580;2024-01-15T12:42:50;1.17;;;0.50;;
69991;SDS011;57332;51.320;-0.580;2024-01-15T12:45:17;0.75;;;0.40;;
69991;SDS011;57332;51.320;-0.580;2024-01-15T12:47:44;4.20;;;0.90;;
69991;SDS011;57332;51.320;-0.580;2024-01-15T12:50:13;1.40;;;0.70;;
69991;SDS011;57332;51.320;-0.580;2024-01-15T12:52:46;1.35;;;0.73;;
69991;SDS011;57332;51.320;-0.580;2024-01-15T12:55:13;0.77;;;0.45;;
69991;SDS011;57332;51.320;-0.580;2024-01-15T12:57:41;2.13;;;0.55;;
69991;SDS011;57332;51.320;-0.580;2024-01-15T13:00:08;2.25;;;0.30;;
69991;SDS011;57332;51.320;-0.580;2024-01-15T13:02:40;6.22;;;0.40;;
69991;SDS011;57332;51.320;-0.580;2024-01-15T13:05:09;1.83;;;0.65;;
69991;SDS011;57332;51.320;-0.580;2024-01-15T13:07:38;0.88;;;0.43;;
69991;SDS011;57332;51.320;-0.580;2024-01-15T13:10:05;1.30;;;0.55;;
69991;SDS011;57332;51.320;-0.580;2024-01-15T13:12:33;0.95;;;0.45;;
69991;SDS011;57332;51.320;-0.580;2024-01-15T13:15:00;2.55;;;0.45;;
69991;SDS011;57332;51.320;-0.580;2024-01-15T13:17:30;3.45;;;0.65;;
69991;SDS011;57332;51.320;-0.580;2024-01-15T13:19:57;2.05;;;0.60;;
69991;SDS011;57332;51.320;-0.580;2024-01-15T13:22:24;2.65;;;0.90;;
69991;SDS011;57332;51.320;-0.580;2024-01-15T13:24:56;2.22;;;0.68;;
69991;SDS011;57332;51.320;-0.580;2024-01-15T13:27:23;0.77;;;0.57;;
69991;SDS011;57332;51.320;-0.580;2024-01-15T13:29:50;1.33;;;0.50;;
69991;SDS011;57332;51.320;-0.580;2024-01-15T13:32:20;2.35;;;0.68;;
69991;SDS011;57332;51.320;-0.580;2024-01-15T13:34:49;1.45;;;0.52;;
69991;SDS011;57332;51.320;-0.580;2024-01-15T13:37:16;0.82;;;0.52;;
69991;SDS011;57332;51.320;-0.580;2024-01-15T13:39:43;3.63;;;0.50;;
69991;SDS011;57332;51.320;-0.580;2024-01-15T13:42:10;1.15;;;0.40;;
69991;SDS011;57332;51.320;-0.580;2024-01-15T13:44:38;1.52;;;0.47;;
69991;SDS011;57332;51.320;-0.580;2024-01-15T13:47:05;3.53;;;0.80;;
69991;SDS011;57332;51.320;-0.580;2024-01-15T13:49:32;2.17;;;0.80;;
69991;SDS011;57332;51.320;-0.580;2024-01-15T13:52:01;2.67;;;0.80;;
69991;SDS011;57332;51.320;-0.580;2024-01-15T13:54:30;3.22;;;0.80;;
69991;SDS011;57332;51.320;-0.580;2024-01-15T13:57:14;0.95;;;0.60;;
69991;SDS011;57332;51.320;-0.580;2024-01-15T13:59:42;5.22;;;0.85;;
69991;SDS011;57332;51.320;-0.580;2024-01-15T14:02:09;0.90;;;0.70;;
69991;SDS011;57332;51.320;-0.580;2024-01-15T14:04:37;1.90;;;0.85;;
69991;SDS011;57332;51.320;-0.580;2024-01-15T14:07:04;2.08;;;0.60;;
69991;SDS011;57332;51.320;-0.580;2024-01-15T14:09:31;3.05;;;0.60;;
69991;SDS011;57332;51.320;-0.580;2024-01-15T14:11:59;1.00;;;0.70;;
69991;SDS011;57332;51.320;-0.580;2024-01-15T14:14:26;2.40;;;0.80;;
69991;SDS011;57332;51.320;-0.580;2024-01-15T14:16:53;2.10;;;0.90;;
69991;SDS011;57332;51.320;-0.580;2024-01-15T14:19:20;1.50;;;0.85;;
69991;SDS011;57332;51.320;-0.580;2024-01-15T14:21:48;1.17;;;0.52;;
69991;SDS011;57332;51.320;-0.580;2024-01-15T14:24:15;1.70;;;0.60;;
69991;SDS011;57332;51.320;-0.580;2024-01-15T14:26:44;2.55;;;0.73;;
69991;SDS011;57332;51.320;-0.580;2024-01-15T14:29:10;1.00;;;0.52;;
69991;SDS011;57332;51.320;-0.580;2024-01-15T14:31:37;1.83;;;0.65;;
69991;SDS011;57332;51.320;-0.580;2024-01-15T14:34:05;3.25;;;0.70;;
69991;SDS011;57332;51.320;-0.580;2024-01-15T14:36:32;1.85;;;0.70;;
69991;SDS011;57332;51.320;-0.580;2024-01-15T14:38:59;2.95;;;0.77;;
69991;SDS011;57332;51.320;-0.580;2024-01-15T14:41:25;1.17;;;0.60;;
69991;SDS011;57332;51.320;-0.580;2024-01-15T14:43:53;3.00;;;0.55;;
69991;SDS011;57332;51.320;-0.580;2024-01-15T14:46:20;1.60;;;0.60;;
69991;SDS011;57332;51.320;-0.580;2024-01-15T14:48:47;1.55;;;0.65;;
69991;SDS011;57332;51.320;-0.580;2024-01-15T14:51:14;1.08;;;0.70;;